Terminal Aerodrome Forecast
Issued by NWS

Home | Current Version | Previous Version | Text Only | Print | Product List | Glossary On
Versions: 1 2 3 4 5 6 7 8 9 10 11 12 13 14 15 16 17 18
914
FTUS41 KPBZ 181736
TAFBVI
TAF
KBVI 181736Z 1818/1918 19010KT 5SM -SHRA OVC025 WS020/21045KT
      TEMPO 1818/1821 2SM SHRA BR OVC015
     FM190000 19018G32KT 3SM -SHRA OVC015
     FM190600 28018G38KT 5SM -SHRASN OVC008
     FM191000 29016G28KT P6SM VCSH OVC015=

USA.gov is the U.S. government's official web portal to all federal, state and local government web resources and services.